Time;durP1;ratioP1;P1;durP2;ratioP2;P2;SDS_P1;SDS_P2;PMS_P1;PMS_P2;Temp;Humidity;BMP_temperature;BMP_pressure;BME280_temperature;BME280_humidity;BME280_pressure;Samples;Min_cycle;Max_cycle;Signal;HPM_P1;HPM_P2
2022/10/12 01:43:38;;;;;;;3.33;0.90;;;;;;;;;;5091938;27;20420;-68
2022/10/12 01:46:06;;;;;;;4.75;0.93;;;;;;;;;;5085904;27;20413;-66
2022/10/12 01:48:32;;;;;;;5.30;0.80;;;;;;;;;;5090989;27;20210;-65
2022/10/12 01:51:01;;;;;;;3.10;0.85;;;;;;;;;;5093245;27;20513;-64
2022/10/12 01:53:49;;;;;;;3.83;0.85;;;;;;;;;;5091344;27;20556;-65
2022/10/12 01:56:19;;;;;;;3.95;0.90;;;;;;;;;;5074357;27;20043;-66
2022/10/12 01:59:04;;;;;;;6.43;0.90;;;;;;;;;;5073837;28;20040;-66
2022/10/12 02:01:41;;;;;;;4.05;0.95;;;;;;;;;;5072734;27;20053;-67
2022/10/12 02:04:29;;;;;;;5.97;1.00;;;;;;;;;;5072434;27;20422;-68
2022/10/12 02:07:01;;;;;;;4.47;0.70;;;;;;;;;;5086374;27;20040;-65
2022/10/12 02:09:29;;;;;;;2.93;0.80;;;;;;;;;;5083648;27;20048;-66
2022/10/12 02:11:57;;;;;;;5.07;0.98;;;;;;;;;;5084917;27;20063;-66
2022/10/12 02:14:29;;;;;;;4.45;1.00;;;;;;;;;;5092532;27;20071;-66
2022/10/12 02:16:58;;;;;;;3.17;0.70;;;;;;;;;;5093135;27;20463;-69
2022/10/12 02:19:27;;;;;;;5.35;1.00;;;;;;;;;;5092955;27;20059;-68
2022/10/12 02:21:55;;;;;;;2.30;0.70;;;;;;;;;;5088776;27;20105;-66
2022/10/12 02:24:23;;;;;;;2.38;0.60;;;;;;;;;;5075267;27;20029;-65
2022/10/12 02:26:52;;;;;;;6.00;1.15;;;;;;;;;;5073056;27;20043;-64
2022/10/12 02:29:22;;;;;;;4.72;1.05;;;;;;;;;;5073193;27;20036;-67
2022/10/12 02:31:54;;;;;;;4.20;0.82;;;;;;;;;;5072153;27;20066;-65
2022/10/12 02:34:24;;;;;;;5.60;0.95;;;;;;;;;;5071779;27;20381;-65
2022/10/12 02:36:53;;;;;;;2.33;0.77;;;;;;;;;;5073297;27;20393;-65
2022/10/12 02:39:23;;;;;;;10.45;0.90;;;;;;;;;;5072782;27;20043;-66
2022/10/12 02:41:50;;;;;;;7.07;1.23;;;;;;;;;;5073138;27;20102;-65
2022/10/12 02:44:23;;;;;;;5.80;1.10;;;;;;;;;;5072497;27;20114;-66
2022/10/12 02:46:50;;;;;;;3.33;0.80;;;;;;;;;;5071476;27;20032;-65
2022/10/12 02:49:17;;;;;;;5.15;1.05;;;;;;;;;;5072208;27;20050;-65
2022/10/12 02:51:45;;;;;;;4.03;0.90;;;;;;;;;;5072816;27;20040;-70
2022/10/12 02:54:12;;;;;;;5.60;1.05;;;;;;;;;;5062142;27;20044;-67
2022/10/12 02:56:46;;;;;;;3.58;1.17;;;;;;;;;;5058629;28;20091;-68
2022/10/12 02:59:16;;;;;;;3.05;1.13;;;;;;;;;;5058890;28;20417;-66
2022/10/12 03:01:42;;;;;;;7.80;1.08;;;;;;;;;;5058705;28;20210;-66
2022/10/12 03:04:09;;;;;;;4.10;1.00;;;;;;;;;;5058547;28;20040;-65
2022/10/12 03:06:36;;;;;;;6.30;1.20;;;;;;;;;;5058952;28;20040;-67
2022/10/12 03:09:03;;;;;;;4.97;1.00;;;;;;;;;;5058649;28;20083;-66
2022/10/12 03:11:30;;;;;;;2.85;0.88;;;;;;;;;;5058661;28;20039;-66
2022/10/12 03:13:57;;;;;;;3.80;1.20;;;;;;;;;;5057535;28;20040;-67
2022/10/12 03:16:24;;;;;;;4.22;1.00;;;;;;;;;;5058939;28;20109;-66
2022/10/12 03:18:51;;;;;;;6.47;0.90;;;;;;;;;;5059393;28;20163;-68
2022/10/12 03:21:18;;;;;;;7.95;1.20;;;;;;;;;;5058505;28;20048;-67
2022/10/12 03:23:44;;;;;;;6.57;0.98;;;;;;;;;;5057975;28;20134;-64
2022/10/12 03:26:11;;;;;;;4.60;1.10;;;;;;;;;;5058783;28;20031;-66
2022/10/12 03:28:37;;;;;;;6.00;1.15;;;;;;;;;;5057279;28;20041;-66
2022/10/12 03:31:04;;;;;;;8.13;1.17;;;;;;;;;;5058986;28;20072;-65
2022/10/12 03:33:31;;;;;;;3.50;1.15;;;;;;;;;;5056719;28;20044;-66
2022/10/12 03:35:58;;;;;;;9.98;1.15;;;;;;;;;;5058161;28;20047;-67
2022/10/12 03:38:25;;;;;;;10.32;1.30;;;;;;;;;;5057834;28;20064;-66
2022/10/12 03:40:51;;;;;;;5.60;1.23;;;;;;;;;;5058698;28;20047;-67
2022/10/12 03:43:18;;;;;;;4.88;1.48;;;;;;;;;;5056970;28;20044;-66
2022/10/12 03:45:45;;;;;;;6.40;1.35;;;;;;;;;;5058286;28;20484;-66
2022/10/12 03:48:11;;;;;;;6.53;1.65;;;;;;;;;;5059151;28;20135;-64
2022/10/12 03:50:39;;;;;;;3.47;1.20;;;;;;;;;;5057580;28;20118;-66
2022/10/12 03:53:06;;;;;;;4.32;1.10;;;;;;;;;;5056736;28;20528;-65
2022/10/12 03:55:33;;;;;;;4.97;1.20;;;;;;;;;;5059065;28;20051;-66
2022/10/12 03:57:59;;;;;;;3.30;1.08;;;;;;;;;;5077404;27;20046;-65
2022/10/12 04:00:28;;;;;;;6.18;1.20;;;;;;;;;;5080012;27;20044;-64
2022/10/12 04:02:54;;;;;;;3.25;1.00;;;;;;;;;;5076730;27;20061;-66
2022/10/12 04:05:21;;;;;;;4.47;1.27;;;;;;;;;;5055901;28;20636;-65
2022/10/12 04:07:47;;;;;;;4.40;1.20;;;;;;;;;;5058836;28;20083;-65
2022/10/12 04:10:14;;;;;;;4.40;1.15;;;;;;;;;;5057584;28;20362;-65
2022/10/12 04:12:41;;;;;;;3.90;1.00;;;;;;;;;;5055344;28;20040;-65
2022/10/12 04:15:08;;;;;;;3.00;1.02;;;;;;;;;;5057260;28;20830;-64
2022/10/12 04:17:35;;;;;;;3.80;1.17;;;;;;;;;;5056583;28;20040;-65
2022/10/12 04:20:02;;;;;;;7.05;1.15;;;;;;;;;;5056292;28;20031;-66
2022/10/12 04:22:29;;;;;;;6.00;1.23;;;;;;;;;;5055478;28;20150;-65
2022/10/12 04:24:55;;;;;;;3.67;1.20;;;;;;;;;;5056612;28;20045;-65
2022/10/12 04:27:22;;;;;;;5.10;1.30;;;;;;;;;;5056304;28;20041;-65
2022/10/12 04:29:49;;;;;;;2.70;1.13;;;;;;;;;;5057876;28;21725;-65
2022/10/12 04:32:15;;;;;;;6.20;1.45;;;;;;;;;;5055823;28;20180;-65
2022/10/12 04:34:42;;;;;;;4.05;0.95;;;;;;;;;;5055737;28;20037;-64
2022/10/12 04:37:08;;;;;;;5.20;1.10;;;;;;;;;;5056841;28;20590;-65
2022/10/12 04:39:35;;;;;;;6.75;1.17;;;;;;;;;;5055860;28;20051;-66
2022/10/12 04:42:02;;;;;;;3.55;0.93;;;;;;;;;;5056614;28;20059;-67
2022/10/12 04:44:28;;;;;;;4.07;0.95;;;;;;;;;;5056204;28;20051;-65
2022/10/12 04:46:55;;;;;;;3.33;1.20;;;;;;;;;;5056318;28;20029;-66
2022/10/12 04:49:22;;;;;;;2.90;0.90;;;;;;;;;;5055998;28;20124;-64
2022/10/12 04:51:48;;;;;;;5.65;1.10;;;;;;;;;;5057153;28;20524;-66
2022/10/12 04:54:15;;;;;;;5.40;1.00;;;;;;;;;;5056040;28;20044;-66
2022/10/12 04:56:42;;;;;;;6.63;1.00;;;;;;;;;;5055353;28;20094;-66
2022/10/12 04:59:08;;;;;;;3.08;0.80;;;;;;;;;;5057339;28;20076;-71
2022/10/12 05:01:35;;;;;;;2.22;0.73;;;;;;;;;;5055751;28;20493;-65
2022/10/12 05:04:01;;;;;;;3.80;0.98;;;;;;;;;;5055971;28;20044;-65
2022/10/12 05:06:28;;;;;;;4.05;1.00;;;;;;;;;;5054864;28;20454;-65
2022/10/12 05:08:55;;;;;;;2.72;0.82;;;;;;;;;;5064767;27;20028;-65
2022/10/12 05:11:21;;;;;;;3.85;0.90;;;;;;;;;;5059662;27;20040;-65
2022/10/12 05:13:48;;;;;;;4.15;0.90;;;;;;;;;;5055586;28;20033;-67
2022/10/12 05:16:14;;;;;;;6.28;1.00;;;;;;;;;;5056075;28;20127;-67
2022/10/12 05:18:41;;;;;;;2.83;1.02;;;;;;;;;;5056380;28;20685;-65
2022/10/12 05:21:08;;;;;;;2.67;0.90;;;;;;;;;;5056041;28;20090;-65
2022/10/12 05:23:34;;;;;;;3.95;0.70;;;;;;;;;;5054488;28;20405;-67
2022/10/12 05:26:01;;;;;;;2.97;0.80;;;;;;;;;;5056376;28;20064;-66
2022/10/12 05:28:27;;;;;;;4.75;0.90;;;;;;;;;;5055686;28;20142;-65
2022/10/12 05:30:54;;;;;;;3.65;0.80;;;;;;;;;;5056943;28;20052;-65
2022/10/12 05:33:21;;;;;;;3.75;0.95;;;;;;;;;;5054782;28;20485;-65
2022/10/12 05:35:48;;;;;;;4.38;0.93;;;;;;;;;;5055866;28;20054;-65
2022/10/12 05:38:15;;;;;;;2.47;0.70;;;;;;;;;;5055748;28;20043;-64
2022/10/12 05:40:41;;;;;;;3.35;0.80;;;;;;;;;;5055223;28;20131;-65
2022/10/12 05:43:08;;;;;;;2.38;0.80;;;;;;;;;;5055469;28;20052;-66
2022/10/12 05:45:34;;;;;;;2.33;0.75;;;;;;;;;;5055091;28;20047;-65
2022/10/12 05:48:01;;;;;;;2.58;0.80;;;;;;;;;;5054165;28;20151;-67
2022/10/12 05:50:28;;;;;;;4.20;0.88;;;;;;;;;;5073823;27;20532;-68
2022/10/12 05:52:54;;;;;;;4.70;0.90;;;;;;;;;;5075180;27;20040;-66
2022/10/12 05:55:21;;;;;;;1.85;0.60;;;;;;;;;;5066857;27;20051;-66
2022/10/12 05:57:48;;;;;;;5.63;0.88;;;;;;;;;;5075875;27;20044;-66
2022/10/12 06:00:15;;;;;;;2.80;0.80;;;;;;;;;;5059454;27;20052;-65
2022/10/12 06:02:42;;;;;;;5.80;0.70;;;;;;;;;;5055102;28;20063;-65
2022/10/12 06:05:08;;;;;;;3.22;0.70;;;;;;;;;;5055701;28;20086;-67
2022/10/12 06:07:35;;;;;;;3.78;0.88;;;;;;;;;;5058628;28;20174;-66
2022/10/12 06:10:02;;;;;;;3.78;1.00;;;;;;;;;;5056173;28;20077;-65
2022/10/12 06:12:28;;;;;;;6.22;0.85;;;;;;;;;;5054641;28;20043;-66
2022/10/12 06:14:55;;;;;;;2.67;0.73;;;;;;;;;;5055615;28;20028;-67
2022/10/12 06:17:21;;;;;;;6.05;0.80;;;;;;;;;;5055254;28;20041;-66
2022/10/12 06:19:48;;;;;;;2.05;0.70;;;;;;;;;;5056177;28;20036;-67
2022/10/12 06:22:15;;;;;;;2.40;0.70;;;;;;;;;;5054680;28;20056;-66
2022/10/12 06:24:41;;;;;;;6.25;0.82;;;;;;;;;;5055522;28;20581;-66
2022/10/12 06:27:09;;;;;;;1.85;0.63;;;;;;;;;;5056234;28;20044;-66
2022/10/12 06:29:37;;;;;;;2.90;0.80;;;;;;;;;;5057513;28;20036;-66
2022/10/12 06:32:03;;;;;;;2.60;0.60;;;;;;;;;;5058413;28;20788;-66
2022/10/12 06:34:30;;;;;;;2.55;0.70;;;;;;;;;;5059236;28;20046;-67
2022/10/12 06:36:56;;;;;;;2.08;0.50;;;;;;;;;;5059120;28;20040;-66
2022/10/12 06:39:24;;;;;;;2.50;0.60;;;;;;;;;;5059049;28;20528;-67
2022/10/12 06:41:53;;;;;;;2.72;0.60;;;;;;;;;;5058295;28;20079;-66
2022/10/12 06:44:21;;;;;;;3.97;0.98;;;;;;;;;;5073918;28;20055;-67
2022/10/12 06:46:48;;;;;;;1.63;0.60;;;;;;;;;;5058991;28;20453;-66
2022/10/12 06:49:15;;;;;;;2.13;0.70;;;;;;;;;;5059217;28;20033;-66
2022/10/12 06:51:42;;;;;;;2.72;0.70;;;;;;;;;;5058318;28;20037;-66
2022/10/12 06:54:09;;;;;;;3.13;0.90;;;;;;;;;;5057966;28;20037;-67
2022/10/12 06:56:37;;;;;;;1.90;0.70;;;;;;;;;;5057933;28;20443;-67
2022/10/12 06:59:03;;;;;;;4.15;0.90;;;;;;;;;;5058271;28;20044;-67
2022/10/12 07:01:30;;;;;;;2.70;0.85;;;;;;;;;;5057755;28;20058;-66
2022/10/12 07:03:57;;;;;;;2.08;0.70;;;;;;;;;;5058488;28;20916;-68
2022/10/12 07:06:23;;;;;;;3.08;0.75;;;;;;;;;;5058356;28;20154;-66
2022/10/12 07:08:53;;;;;;;4.05;1.00;;;;;;;;;;5059598;28;20041;-70
2022/10/12 07:11:20;;;;;;;4.93;0.93;;;;;;;;;;5058098;28;20704;-66
2022/10/12 07:13:46;;;;;;;4.18;0.80;;;;;;;;;;5057725;28;20036;-66
2022/10/12 07:16:13;;;;;;;2.95;0.75;;;;;;;;;;5059845;28;20047;-65
2022/10/12 07:18:39;;;;;;;3.47;0.68;;;;;;;;;;5057640;28;20032;-65
2022/10/12 07:21:06;;;;;;;2.97;0.70;;;;;;;;;;5057679;28;20085;-66
2022/10/12 07:23:34;;;;;;;3.17;0.80;;;;;;;;;;5056914;28;20855;-66
2022/10/12 07:26:01;;;;;;;2.72;0.60;;;;;;;;;;5065980;28;20044;-67
2022/10/12 07:28:27;;;;;;;2.55;0.75;;;;;;;;;;5057904;28;20070;-66
2022/10/12 07:30:54;;;;;;;6.35;0.90;;;;;;;;;;5058702;28;20495;-66
2022/10/12 07:33:20;;;;;;;3.25;0.60;;;;;;;;;;5057201;28;20040;-65
2022/10/12 07:35:54;;;;;;;2.60;0.70;;;;;;;;;;5057687;28;20804;-64
2022/10/12 07:38:21;;;;;;;1.60;0.57;;;;;;;;;;5057303;28;20054;-65
2022/10/12 07:40:47;;;;;;;1.77;0.60;;;;;;;;;;5057622;28;20212;-64
2022/10/12 07:43:14;;;;;;;2.20;0.60;;;;;;;;;;5057746;28;20053;-65
2022/10/12 07:45:40;;;;;;;2.38;0.70;;;;;;;;;;5057188;28;20132;-65
2022/10/12 07:48:07;;;;;;;3.58;0.77;;;;;;;;;;5057869;28;20489;-64
2022/10/12 07:50:33;;;;;;;2.85;0.70;;;;;;;;;;5057160;28;20032;-64
2022/10/12 07:53:00;;;;;;;2.10;0.70;;;;;;;;;;5057755;28;20119;-66
2022/10/12 07:55:27;;;;;;;2.15;0.60;;;;;;;;;;5056913;28;20134;-65
2022/10/12 07:57:53;;;;;;;1.92;0.60;;;;;;;;;;5058001;28;20201;-64
2022/10/12 08:00:21;;;;;;;1.95;0.60;;;;;;;;;;5066003;27;20036;-65
2022/10/12 08:02:47;;;;;;;2.38;0.60;;;;;;;;;;5057372;28;21829;-64
2022/10/12 08:05:14;;;;;;;5.90;0.80;;;;;;;;;;5059153;28;21387;-65
2022/10/12 08:07:40;;;;;;;4.80;0.65;;;;;;;;;;5057852;28;20036;-66
2022/10/12 08:10:07;;;;;;;3.20;0.57;;;;;;;;;;5056485;28;20036;-64
2022/10/12 08:12:34;;;;;;;2.40;0.77;;;;;;;;;;5055724;28;20067;-64
2022/10/12 08:15:00;;;;;;;2.22;0.60;;;;;;;;;;5057756;28;20052;-65
2022/10/12 08:17:27;;;;;;;1.77;0.60;;;;;;;;;;5056115;28;20141;-66
2022/10/12 08:19:53;;;;;;;6.38;0.70;;;;;;;;;;5057427;28;20096;-66
2022/10/12 08:22:20;;;;;;;2.22;0.60;;;;;;;;;;5055859;28;20052;-66
2022/10/12 08:24:46;;;;;;;5.88;0.77;;;;;;;;;;5057826;28;20039;-65
2022/10/12 08:27:13;;;;;;;3.05;0.60;;;;;;;;;;5058350;28;20512;-65
2022/10/12 08:29:40;;;;;;;3.50;0.70;;;;;;;;;;5058437;28;20049;-65
2022/10/12 08:32:07;;;;;;;2.95;0.65;;;;;;;;;;5058006;28;20738;-66
2022/10/12 08:34:33;;;;;;;2.28;0.60;;;;;;;;;;5057212;28;20068;-65
2022/10/12 08:37:00;;;;;;;2.03;0.60;;;;;;;;;;5057339;28;20123;-65
2022/10/12 08:39:26;;;;;;;3.80;0.63;;;;;;;;;;5055814;28;20045;-66
2022/10/12 08:41:59;;;;;;;1.80;0.50;;;;;;;;;;5056140;28;20053;-67
2022/10/12 08:44:44;;;;;;;1.37;0.50;;;;;;;;;;5056896;28;20161;-68
2022/10/12 08:47:36;;;;;;;3.10;0.70;;;;;;;;;;5057321;28;20425;-65
2022/10/12 08:50:05;;;;;;;2.33;0.70;;;;;;;;;;5054281;28;20064;-66
2022/10/12 08:52:54;;;;;;;1.95;0.70;;;;;;;;;;5053235;28;20032;-65
2022/10/12 08:55:24;;;;;;;2.85;0.75;;;;;;;;;;5050731;28;20044;-66
2022/10/12 08:57:50;;;;;;;1.33;0.52;;;;;;;;;;5055883;28;20429;-66
2022/10/12 09:00:17;;;;;;;1.52;0.55;;;;;;;;;;5057197;28;20082;-66
2022/10/12 09:02:47;;;;;;;2.13;0.60;;;;;;;;;;5054900;28;20055;-66
2022/10/12 09:05:26;;;;;;;4.78;0.70;;;;;;;;;;5057783;28;20075;-64
2022/10/12 09:07:57;;;;;;;2.97;0.68;;;;;;;;;;5056835;28;20555;-67
2022/10/12 09:10:39;;;;;;;2.20;0.80;;;;;;;;;;5055816;28;20079;-64
2022/10/12 09:13:08;;;;;;;2.13;0.70;;;;;;;;;;5059354;28;20046;-66
2022/10/12 09:15:38;;;;;;;3.40;0.70;;;;;;;;;;5073873;27;20032;-65
2022/10/12 09:18:11;;;;;;;3.47;0.68;;;;;;;;;;5070613;27;20031;-66
2022/10/12 09:20:46;;;;;;;2.95;0.70;;;;;;;;;;5098352;27;20079;-67
2022/10/12 09:23:33;;;;;;;3.58;0.90;;;;;;;;;;5080301;27;20320;-66
2022/10/12 09:26:06;;;;;;;2.92;0.80;;;;;;;;;;5088542;27;20042;-65
2022/10/12 09:28:33;;;;;;;3.65;0.70;;;;;;;;;;5075891;27;20036;-66
2022/10/12 09:31:09;;;;;;;2.08;0.60;;;;;;;;;;5091094;27;20044;-67
2022/10/12 09:34:00;;;;;;;1.48;0.50;;;;;;;;;;5072688;28;20044;-65
2022/10/12 09:36:28;;;;;;;4.35;0.63;;;;;;;;;;5072498;28;20032;-65
2022/10/12 09:38:55;;;;;;;2.10;0.60;;;;;;;;;;5073079;28;20036;-66
2022/10/12 09:41:30;;;;;;;3.08;0.70;;;;;;;;;;5073548;28;20068;-67
2022/10/12 09:43:59;;;;;;;2.70;0.85;;;;;;;;;;5074437;28;20113;-66
2022/10/12 09:46:29;;;;;;;2.00;0.70;;;;;;;;;;5074835;28;20045;-66
2022/10/12 09:48:57;;;;;;;3.42;0.90;;;;;;;;;;5075192;28;20456;-66
2022/10/12 09:51:24;;;;;;;8.80;0.70;;;;;;;;;;5074770;28;20122;-65
2022/10/12 09:53:51;;;;;;;4.30;0.70;;;;;;;;;;5075088;28;20032;-66
2022/10/12 09:56:29;;;;;;;2.20;0.77;;;;;;;;;;5073807;28;20109;-67
2022/10/12 09:59:00;;;;;;;2.17;0.60;;;;;;;;;;5058617;28;20040;-68
2022/10/12 10:01:28;;;;;;;3.10;0.60;;;;;;;;;;5051755;28;20123;-65
2022/10/12 10:04:21;;;;;;;4.43;0.80;;;;;;;;;;5073015;28;20040;-65
2022/10/12 10:06:48;;;;;;;2.85;0.82;;;;;;;;;;5035058;28;20079;-66
2022/10/12 10:09:28;;;;;;;2.30;0.65;;;;;;;;;;5080467;27;20118;-66
2022/10/12 10:11:56;;;;;;;3.10;0.80;;;;;;;;;;5078509;27;20036;-65
2022/10/12 10:14:22;;;;;;;2.40;0.60;;;;;;;;;;5079373;27;20161;-66
2022/10/12 10:16:50;;;;;;;3.75;0.80;;;;;;;;;;5079691;27;20039;-66
2022/10/12 10:19:20;;;;;;;2.13;0.60;;;;;;;;;;5079842;27;20052;-65
2022/10/12 10:21:47;;;;;;;3.50;0.60;;;;;;;;;;5060984;28;20051;-67
2022/10/12 10:24:24;;;;;;;2.65;0.75;;;;;;;;;;5059925;28;20401;-68
2022/10/12 10:26:57;;;;;;;3.45;0.88;;;;;;;;;;5071345;27;20060;-66
2022/10/12 10:29:29;;;;;;;1.80;0.60;;;;;;;;;;5070287;27;20689;-65
2022/10/12 10:32:22;;;;;;;2.65;0.70;;;;;;;;;;5074561;27;20028;-66
2022/10/12 10:34:59;;;;;;;2.53;0.63;;;;;;;;;;5078776;27;20048;-66
2022/10/12 10:37:26;;;;;;;2.95;0.68;;;;;;;;;;5068293;27;20119;-65
2022/10/12 10:39:54;;;;;;;5.60;0.82;;;;;;;;;;5079159;27;20151;-66
2022/10/12 10:42:24;;;;;;;2.10;0.60;;;;;;;;;;5076526;27;20063;-66
2022/10/12 10:44:57;;;;;;;2.38;0.88;;;;;;;;;;5066894;27;20059;-65
2022/10/12 10:47:23;;;;;;;4.50;0.85;;;;;;;;;;5061327;28;20090;-66
2022/10/12 10:49:54;;;;;;;2.00;0.60;;;;;;;;;;5059345;28;20131;-66
2022/10/12 10:52:21;;;;;;;3.20;0.80;;;;;;;;;;5058149;28;20075;-66
2022/10/12 10:54:48;;;;;;;4.80;0.90;;;;;;;;;;5059287;28;20052;-65
2022/10/12 10:57:22;;;;;;;3.42;0.80;;;;;;;;;;5059330;28;20032;-66
2022/10/12 10:59:57;;;;;;;2.33;0.80;;;;;;;;;;5058544;28;20115;-66
2022/10/12 11:02:42;;;;;;;2.15;0.70;;;;;;;;;;5056083;28;20041;-67
2022/10/12 11:05:18;;;;;;;2.08;0.70;;;;;;;;;;5058759;28;20544;-66
2022/10/12 11:07:55;;;;;;;5.00;0.98;;;;;;;;;;5058378;28;20063;-66
2022/10/12 11:10:30;;;;;;;3.95;0.73;;;;;;;;;;5059033;28;20055;-66
2022/10/12 11:13:01;;;;;;;2.90;0.60;;;;;;;;;;5057132;28;20037;-67
2022/10/12 11:15:33;;;;;;;1.70;0.60;;;;;;;;;;5058042;28;20044;-66
2022/10/12 11:18:19;;;;;;;6.82;0.90;;;;;;;;;;5059593;28;20222;-65
2022/10/12 11:20:48;;;;;;;2.60;0.70;;;;;;;;;;5056906;28;20045;-66
2022/10/12 11:23:22;;;;;;;3.13;0.70;;;;;;;;;;5057214;28;20045;-65
2022/10/12 11:25:48;;;;;;;;;;;;;;;;;;5059113;28;20747;-65
2022/10/12 11:28:15;;;;;;;4.45;0.73;;;;;;;;;;5058645;28;19951;-65
2022/10/12 11:30:45;;;;;;;6.93;1.02;;;;;;;;;;5058651;28;20128;-65
2022/10/12 11:33:13;;;;;;;2.20;0.80;;;;;;;;;;5057707;28;20043;-66
2022/10/12 11:35:42;;;;;;;2.10;0.70;;;;;;;;;;5066483;27;20044;-66
2022/10/12 11:38:13;;;;;;;3.03;0.90;;;;;;;;;;5077726;27;20040;-66
2022/10/12 11:40:44;;;;;;;2.20;0.80;;;;;;;;;;5060709;27;20834;-66
2022/10/12 11:43:15;;;;;;;4.55;1.10;;;;;;;;;;5076993;27;20040;-66
2022/10/12 11:45:46;;;;;;;4.05;1.10;;;;;;;;;;5068511;27;20105;-67
2022/10/12 11:48:20;;;;;;;4.75;0.88;;;;;;;;;;5069899;27;20516;-65
2022/10/12 11:50:48;;;;;;;8.25;1.17;;;;;;;;;;5077790;27;20089;-65
2022/10/12 11:53:33;;;;;;;3.00;0.82;;;;;;;;;;5077960;27;20044;-67
2022/10/12 11:56:15;;;;;;;3.58;0.90;;;;;;;;;;5057803;28;20390;-65
2022/10/12 11:58:43;;;;;;;2.47;0.80;;;;;;;;;;5057625;28;20048;-66
2022/10/12 12:01:12;;;;;;;4.60;0.80;;;;;;;;;;5056676;28;20039;-67
2022/10/12 12:03:45;;;;;;;6.78;0.98;;;;;;;;;;5058867;28;24751;-67
2022/10/12 12:06:30;;;;;;;3.42;0.90;;;;;;;;;;5059032;28;20040;-66
2022/10/12 12:08:56;;;;;;;3.40;0.80;;;;;;;;;;5058059;28;20160;-65
2022/10/12 12:11:28;;;;;;;4.00;0.93;;;;;;;;;;5056483;28;20041;-65
2022/10/12 12:14:13;;;;;;;4.03;1.00;;;;;;;;;;5057056;28;20044;-66
2022/10/12 12:16:43;;;;;;;2.90;0.90;;;;;;;;;;5057060;28;20389;-66
2022/10/12 12:19:11;;;;;;;4.70;0.93;;;;;;;;;;5056934;28;20040;-67
2022/10/12 12:21:56;;;;;;;4.13;1.00;;;;;;;;;;5055291;28;20517;-70
2022/10/12 12:24:24;;;;;;;3.63;1.25;;;;;;;;;;5057841;28;20043;-67
2022/10/12 12:26:50;;;;;;;2.75;1.00;;;;;;;;;;5055023;28;20409;-65
2022/10/12 12:29:26;;;;;;;3.75;0.88;;;;;;;;;;5055741;28;20041;-65
2022/10/12 12:31:55;;;;;;;3.13;0.85;;;;;;;;;;5055691;28;20036;-67
2022/10/12 12:34:22;;;;;;;5.22;0.90;;;;;;;;;;5054774;28;20094;-68
2022/10/12 12:36:50;;;;;;;3.63;1.00;;;;;;;;;;5055262;28;20040;-65
2022/10/12 12:39:20;;;;;;;3.83;1.00;;;;;;;;;;5056581;28;20068;-66
2022/10/12 12:41:47;;;;;;;6.57;1.02;;;;;;;;;;5058439;28;20059;-67
2022/10/12 12:44:32;;;;;;;3.72;0.90;;;;;;;;;;5059139;28;20393;-65
2022/10/12 12:47:02;;;;;;;6.75;1.20;;;;;;;;;;5056727;28;20048;-66
2022/10/12 12:49:38;;;;;;;6.65;1.13;;;;;;;;;;5056724;28;20047;-65
2022/10/12 12:52:24;;;;;;;6.68;2.30;;;;;;;;;;5056174;28;20086;-65
2022/10/12 12:55:09;;;;;;;6.57;1.02;;;;;;;;;;5055453;28;20041;-66
2022/10/12 12:57:45;;;;;;;4.57;0.90;;;;;;;;;;5056569;28;20059;-65
2022/10/12 13:00:12;;;;;;;3.35;0.93;;;;;;;;;;5056557;28;20041;-65
2022/10/12 13:03:06;;;;;;;3.60;0.90;;;;;;;;;;5051438;28;20086;-66
2022/10/12 13:05:51;;;;;;;4.60;0.90;;;;;;;;;;5053951;28;20094;-66
2022/10/12 13:08:18;;;;;;;4.18;1.00;;;;;;;;;;5053208;28;20344;-66
2022/10/12 13:11:02;;;;;;;4.13;1.02;;;;;;;;;;5051607;28;20044;-65
2022/10/12 13:13:35;;;;;;;3.22;0.98;;;;;;;;;;5054229;28;20052;-65
2022/10/12 13:16:06;;;;;;;3.38;0.90;;;;;;;;;;5056142;28;20078;-65
2022/10/12 13:18:33;;;;;;;4.47;1.00;;;;;;;;;;5055616;28;20422;-65
2022/10/12 13:21:00;;;;;;;2.78;0.93;;;;;;;;;;5056000;28;20389;-65
2022/10/12 13:23:27;;;;;;;3.38;0.80;;;;;;;;;;5055125;28;20056;-67
2022/10/12 13:25:56;;;;;;;4.05;1.02;;;;;;;;;;5056064;28;20765;-65
2022/10/12 13:28:24;;;;;;;3.45;0.90;;;;;;;;;;5056234;28;20048;-66
2022/10/12 13:30:51;;;;;;;2.95;1.00;;;;;;;;;;5056091;28;20036;-66
2022/10/12 13:33:30;;;;;;;5.00;1.00;;;;;;;;;;5055413;28;20650;-66
2022/10/12 13:36:16;;;;;;;6.80;1.15;;;;;;;;;;5056349;28;20044;-66
2022/10/12 13:38:43;;;;;;;2.92;1.00;;;;;;;;;;5055097;28;21041;-65
2022/10/12 13:41:17;;;;;;;5.70;0.90;;;;;;;;;;5056104;28;20036;-65
2022/10/12 13:43:44;;;;;;;7.25;1.10;;;;;;;;;;5055824;28;20059;-66
2022/10/12 13:46:11;;;;;;;3.05;0.80;;;;;;;;;;5056196;28;20119;-65
2022/10/12 13:48:38;;;;;;;5.10;1.20;;;;;;;;;;5056262;28;20044;-66
2022/10/12 13:51:05;;;;;;;6.22;1.02;;;;;;;;;;5056698;28;20071;-67
2022/10/12 13:53:37;;;;;;;2.67;0.88;;;;;;;;;;5054615;28;20048;-65
2022/10/12 13:56:09;;;;;;;3.03;0.90;;;;;;;;;;5055419;28;20036;-66
2022/10/12 13:58:35;;;;;;;6.88;1.13;;;;;;;;;;5048049;28;20062;-65
2022/10/12 14:01:02;;;;;;;7.03;1.58;;;;;;;;;;5054068;28;20079;-65
2022/10/12 14:03:39;;;;;;;3.25;1.05;;;;;;;;;;5069216;28;20098;-65
2022/10/12 14:06:06;;;;;;;3.05;1.00;;;;;;;;;;5051516;28;20054;-64
2022/10/12 14:08:34;;;;;;;4.32;1.02;;;;;;;;;;5054512;28;20041;-65
2022/10/12 14:11:02;;;;;;;3.92;1.05;;;;;;;;;;5055428;28;20479;-64
2022/10/12 14:13:32;;;;;;;8.60;1.20;;;;;;;;;;5053436;28;20035;-65
2022/10/12 14:16:00;;;;;;;3.00;1.08;;;;;;;;;;5070647;28;20089;-66
2022/10/12 14:18:38;;;;;;;2.60;0.90;;;;;;;;;;5054516;28;20048;-67
2022/10/12 14:21:11;;;;;;;5.05;1.10;;;;;;;;;;5053554;28;20036;-65
2022/10/12 14:23:42;;;;;;;6.63;1.50;;;;;;;;;;5053254;28;20045;-64
2022/10/12 14:26:29;;;;;;;6.38;1.45;;;;;;;;;;5055627;28;20040;-64
2022/10/12 14:28:56;;;;;;;18.70;1.48;;;;;;;;;;5054813;28;20052;-66
2022/10/12 14:31:41;;;;;;;5.15;1.27;;;;;;;;;;5053017;28;20040;-66
2022/10/12 14:34:31;;;;;;;5.15;1.48;;;;;;;;;;5054794;28;20047;-64
2022/10/12 14:37:13;;;;;;;4.18;1.20;;;;;;;;;;5050764;27;20052;-65
2022/10/12 14:39:40;;;;;;;6.28;1.33;;;;;;;;;;5051624;27;20155;-65
2022/10/12 14:42:16;;;;;;;5.07;1.10;;;;;;;;;;5053935;28;20131;-66
2022/10/12 14:44:43;;;;;;;8.57;1.40;;;;;;;;;;5054302;28;20048;-66
2022/10/12 14:47:26;;;;;;;6.22;1.27;;;;;;;;;;5059127;28;20362;-65
2022/10/12 14:49:53;;;;;;;;;;;;;;;;;;5055337;28;20040;-66
2022/10/12 14:52:19;;;;;;;7.05;1.45;;;;;;;;;;5057801;28;20068;-65
2022/10/12 14:54:49;;;;;;;7.28;1.33;;;;;;;;;;5056328;28;20040;-64
2022/10/12 14:57:16;;;;;;;3.58;1.05;;;;;;;;;;5054516;28;20075;-64
2022/10/12 14:59:43;;;;;;;7.68;1.42;;;;;;;;;;5058530;28;20079;-65
2022/10/12 15:02:13;;;;;;;6.95;1.38;;;;;;;;;;5058588;28;20050;-67
2022/10/12 15:04:39;;;;;;;6.82;1.30;;;;;;;;;;5057739;28;20059;-66
2022/10/12 15:07:16;;;;;;;6.90;1.48;;;;;;;;;;5057930;28;20047;-65
2022/10/12 15:09:42;;;;;;;5.75;1.50;;;;;;;;;;5057808;28;20043;-65
2022/10/12 15:12:12;;;;;;;7.75;1.50;;;;;;;;;;5055983;28;20051;-64
2022/10/12 15:14:38;;;;;;;8.15;1.40;;;;;;;;;;5056361;28;20765;-65
2022/10/12 15:17:05;;;;;;;5.85;1.20;;;;;;;;;;5090200;27;20044;-64
2022/10/12 15:19:31;;;;;;;3.85;1.23;;;;;;;;;;5056740;28;20067;-65
2022/10/12 15:21:58;;;;;;;3.72;1.30;;;;;;;;;;5057191;28;20048;-65
2022/10/12 15:24:25;;;;;;;4.47;1.42;;;;;;;;;;5057223;28;20064;-65
2022/10/12 15:26:51;;;;;;;8.20;1.63;;;;;;;;;;5057329;28;20040;-65
2022/10/12 15:29:18;;;;;;;6.95;1.48;;;;;;;;;;5057279;28;20052;-65
2022/10/12 15:31:44;;;;;;;5.72;1.58;;;;;;;;;;5056298;28;20037;-64
2022/10/12 15:34:12;;;;;;;12.00;1.60;;;;;;;;;;5057656;28;20135;-65
2022/10/12 15:36:39;;;;;;;4.63;1.40;;;;;;;;;;5056232;28;20224;-65
2022/10/12 15:39:06;;;;;;;8.35;1.83;;;;;;;;;;5055387;28;20125;-64
2022/10/12 15:41:32;;;;;;;3.17;1.10;;;;;;;;;;5062426;27;20044;-66
2022/10/12 15:43:59;;;;;;;8.90;1.35;;;;;;;;;;5076813;27;20098;-65
2022/10/12 15:46:26;;;;;;;4.85;1.30;;;;;;;;;;5067472;27;20075;-65
2022/10/12 15:48:53;;;;;;;3.25;1.00;;;;;;;;;;5058312;28;20113;-64
2022/10/12 15:51:22;;;;;;;7.32;1.13;;;;;;;;;;5060629;27;20037;-65
2022/10/12 15:53:52;;;;;;;3.70;1.05;;;;;;;;;;5071841;28;20032;-65
2022/10/12 15:56:19;;;;;;;10.73;1.30;;;;;;;;;;5055839;28;20497;-66
2022/10/12 15:58:45;;;;;;;7.55;1.20;;;;;;;;;;5057092;28;20123;-65
2022/10/12 16:01:17;;;;;;;4.30;1.13;;;;;;;;;;5077733;27;20497;-64
2022/10/12 16:03:44;;;;;;;5.60;1.23;;;;;;;;;;5074719;27;20119;-65
2022/10/12 16:06:11;;;;;;;3.10;0.90;;;;;;;;;;5075099;28;20039;-65
2022/10/12 16:08:37;;;;;;;7.18;1.20;;;;;;;;;;5064805;27;21373;-65
2022/10/12 16:11:05;;;;;;;3.35;0.90;;;;;;;;;;5058854;28;20609;-65
2022/10/12 16:13:32;;;;;;;2.38;0.70;;;;;;;;;;5058409;27;20029;-64
2022/10/12 16:15:58;;;;;;;2.92;0.60;;;;;;;;;;5056279;28;20128;-64
2022/10/12 16:18:25;;;;;;;2.00;0.60;;;;;;;;;;5055347;28;20056;-64
2022/10/12 16:20:51;;;;;;;2.28;0.70;;;;;;;;;;5057257;28;20152;-65
2022/10/12 16:23:21;;;;;;;3.90;0.50;;;;;;;;;;5056005;28;21671;-65
2022/10/12 16:25:47;;;;;;;2.03;0.60;;;;;;;;;;5055892;28;20044;-63
2022/10/12 16:28:14;;;;;;;5.80;0.70;;;;;;;;;;5056550;28;20070;-64
2022/10/12 16:30:41;;;;;;;9.93;0.80;;;;;;;;;;5072184;28;20045;-69
2022/10/12 16:33:08;;;;;;;2.00;0.52;;;;;;;;;;5056750;28;20107;-64
2022/10/12 16:35:34;;;;;;;2.72;0.70;;;;;;;;;;5054772;28;20036;-65
2022/10/12 16:38:01;;;;;;;1.98;0.70;;;;;;;;;;5056757;28;20045;-65
2022/10/12 16:40:28;;;;;;;1.35;0.50;;;;;;;;;;5056297;28;20036;-64